Terminal Aerodrome Forecast
Issued by NWS

Current Version | Previous Version | Text Only | Print | Product List | Glossary On
Versions: 1 2 3 4 5 6 7 8 9 10 11 12
571
FTUS45 KVEF 100528
TAFBIH
TAF
KBIH 100528Z 1006/1106 35007KT P6SM BKN200
     FM101000 32006KT P6SM SCT070 BKN200
     FM102000 15010KT P6SM SCT070 OVC200
     FM102300 28010KT P6SM SCT070 OVC200
     FM110100 36011KT P6SM SCT070 OVC200=

USA.gov is the U.S. government's official web portal to all federal, state and local government web resources and services.